createdAt,value
2023-04-02T00:00:25.115Z,93202.25
2023-04-02T00:02:55.153Z,93207.28
2023-04-02T00:05:26.076Z,93201.47
2023-04-02T00:07:57.986Z,93209.22
2023-04-02T00:10:50.993Z,93206.88
2023-04-02T00:13:24.353Z,93207.28
2023-04-02T00:15:56.980Z,93210.78
2023-04-02T00:18:24.938Z,93204.16
2023-04-02T00:20:59.343Z,93203.03
2023-04-02T00:23:26.669Z,93207.66
2023-04-02T00:25:53.291Z,93199.53
2023-04-02T00:28:23.287Z,93203.00
2023-04-02T00:30:53.297Z,93208.84
2023-04-02T00:33:24.350Z,93208.81
2023-04-02T00:35:53.389Z,93207.28
2023-04-02T00:38:29.983Z,93218.91
2023-04-02T00:40:59.518Z,93223.56
2023-04-02T00:43:29.046Z,93206.88
2023-04-02T00:45:58.366Z,93215.78
2023-04-02T00:48:31.663Z,93209.56
2023-04-02T00:51:08.272Z,93209.94
2023-04-02T00:53:37.108Z,93208.78
2023-04-02T00:56:12.809Z,93214.63
2023-04-02T00:58:39.976Z,93208.78
2023-04-02T01:01:22.815Z,93203.38
2023-04-02T01:04:01.459Z,93206.50
2023-04-02T01:06:34.179Z,93211.16
2023-04-02T01:09:18.402Z,93209.22
2023-04-02T01:11:56.783Z,93215.81
2023-04-02T01:14:29.143Z,93216.97
2023-04-02T01:17:03.563Z,93209.59
2023-04-02T01:20:11.207Z,93207.66
2023-04-02T01:22:48.026Z,93205.34
2023-04-02T01:25:22.584Z,93206.88
2023-04-02T01:28:06.712Z,93207.28
2023-04-02T01:30:36.090Z,93212.31
2023-04-02T01:33:03.965Z,93213.50
2023-04-02T01:35:38.203Z,93215.03
2023-04-02T01:38:22.607Z,93215.81
2023-04-02T01:41:09.325Z,93224.31
2023-04-02T01:44:01.300Z,93230.16
2023-04-02T01:46:33.516Z,93218.53
2023-04-02T01:49:03.243Z,93222.81
2023-04-02T01:51:34.777Z,93223.19
2023-04-02T01:54:04.303Z,93220.84
2023-04-02T01:56:31.184Z,93227.81
2023-04-02T01:58:58.788Z,93218.53
2023-04-02T02:01:34.213Z,93228.97
2023-04-02T02:04:02.024Z,93225.88
2023-04-02T02:06:29.024Z,93224.72
2023-04-02T02:09:01.391Z,93230.91
2023-04-02T02:11:31.091Z,93225.47
2023-04-02T02:14:34.062Z,93225.84
2023-04-02T02:17:02.792Z,93225.44
2023-04-02T02:19:38.519Z,93225.44
2023-04-02T02:22:27.272Z,93226.97
2023-04-02T02:24:56.138Z,93232.00
2023-04-02T02:27:22.773Z,93234.28
2023-04-02T02:30:10.901Z,93245.41
2023-04-02T02:32:47.196Z,93249.69
2023-04-02T02:35:23.607Z,93242.38
2023-04-02T02:38:00.916Z,93246.63
2023-04-02T02:40:34.408Z,93248.59
2023-04-02T02:43:06.260Z,93250.03
2023-04-02T02:45:38.939Z,93254.00
2023-04-02T02:48:19.453Z,93259.06
2023-04-02T02:50:46.437Z,93252.09
2023-04-02T02:53:22.585Z,93253.22
2023-04-02T02:55:53.606Z,93253.53
2023-04-02T02:58:27.397Z,93262.44
2023-04-02T03:00:54.455Z,93260.47
2023-04-02T03:03:24.785Z,93255.00
2023-04-02T03:06:02.743Z,93265.44
2023-04-02T03:08:34.724Z,93264.28
2023-04-02T03:11:39.877Z,93273.94
2023-04-02T03:14:27.132Z,93270.41
2023-04-02T03:17:00.831Z,93271.94
2023-04-02T03:19:49.983Z,93278.13
2023-04-02T03:22:29.805Z,93276.13
2023-04-02T03:25:03.634Z,93282.75
2023-04-02T03:27:37.996Z,93280.84
2023-04-02T03:30:23.109Z,93290.50
2023-04-02T03:32:54.704Z,93289.72
2023-04-02T03:35:47.305Z,93294.78
2023-04-02T03:38:24.807Z,93307.63
2023-04-02T03:41:13.175Z,93294.47
2023-04-02T03:43:44.042Z,93292.53
2023-04-02T03:46:25.748Z,93296.84
2023-04-02T03:48:59.395Z,93300.00
2023-04-02T03:51:52.993Z,93294.59
2023-04-02T03:54:19.830Z,93299.25
2023-04-02T03:56:47.675Z,93294.47
2023-04-02T03:59:28.253Z,93307.81
2023-04-02T04:02:11.086Z,93305.44
2023-04-02T04:04:41.440Z,93308.72
2023-04-02T04:07:16.282Z,93308.06
2023-04-02T04:09:46.845Z,93323.16
2023-04-02T04:12:27.028Z,93320.53
2023-04-02T04:15:14.238Z,93324.81
2023-04-02T04:18:01.961Z,93325.63
2023-04-02T04:20:57.003Z,93328.72
2023-04-02T04:23:30.111Z,93333.34
2023-04-02T04:26:09.619Z,93332.59
2023-04-02T04:28:41.867Z,93337.59
2023-04-02T04:31:18.233Z,93340.31
2023-04-02T04:33:50.549Z,93339.59
2023-04-02T04:36:31.502Z,93346.97
2023-04-02T04:39:05.716Z,93350.03
2023-04-02T04:41:36.135Z,93352.81
2023-04-02T04:44:24.833Z,93351.66
2023-04-02T04:46:56.068Z,93353.19
2023-04-02T04:49:31.866Z,93351.63
2023-04-02T04:52:21.571Z,93360.94
2023-04-02T04:54:48.208Z,93364.81
2023-04-02T04:57:41.486Z,93372.56
2023-04-02T05:00:17.334Z,93367.81
2023-04-02T05:02:57.744Z,93378.28
2023-04-02T05:05:29.979Z,93371.72
2023-04-02T05:08:04.332Z,93376.06
2023-04-02T05:10:43.668Z,93371.09
2023-04-02T05:13:35.420Z,93372.25
2023-04-02T05:16:16.841Z,93376.56
2023-04-02T05:19:04.371Z,93376.97
2023-04-02T05:21:42.993Z,93388.25
2023-04-02T05:24:27.667Z,93373.56
2023-04-02T05:27:00.728Z,93384.00
2023-04-02T05:29:37.509Z,93381.69
2023-04-02T05:32:30.582Z,93388.13
2023-04-02T05:34:58.086Z,93383.22
2023-04-02T05:37:29.200Z,93393.72
2023-04-02T05:39:59.522Z,93388.34
2023-04-02T05:42:32.289Z,93384.44
2023-04-02T05:45:27.833Z,93393.78
2023-04-02T05:48:02.988Z,93393.81
2023-04-02T05:50:37.217Z,93393.03
2023-04-02T05:53:13.418Z,93394.97
2023-04-02T05:55:58.087Z,93401.59
2023-04-02T05:58:36.641Z,93407.41
2023-04-02T06:01:24.162Z,93412.03
2023-04-02T06:04:04.146Z,93413.59
2023-04-02T06:06:43.584Z,93412.81
2023-04-02T06:09:31.900Z,93401.56
2023-04-02T06:12:42.858Z,93414.31
2023-04-02T06:15:14.288Z,93418.56
2023-04-02T06:18:19.135Z,93422.09
2023-04-02T06:20:46.168Z,93420.09
2023-04-02T06:23:18.205Z,93422.06
2023-04-02T06:25:54.480Z,93427.44
2023-04-02T06:28:28.990Z,93433.22
2023-04-02T06:31:04.495Z,93424.31
2023-04-02T06:33:31.221Z,93434.38
2023-04-02T06:36:00.319Z,93442.16
2023-04-02T06:38:30.265Z,93434.34
2023-04-02T06:41:00.012Z,93448.41
2023-04-02T06:43:35.602Z,93449.91
2023-04-02T06:46:11.049Z,93451.81
2023-04-02T06:48:39.320Z,93451.94
2023-04-02T06:51:10.390Z,93457.31
2023-04-02T06:53:44.546Z,93452.63
2023-04-02T06:56:31.726Z,93462.28
2023-04-02T06:58:59.083Z,93456.31
2023-04-02T07:01:30.582Z,93458.59
2023-04-02T07:03:58.006Z,93446.34
2023-04-02T07:06:24.923Z,93456.53
2023-04-02T07:08:51.653Z,93453.22
2023-04-02T07:11:21.936Z,93460.78
2023-04-02T07:13:50.497Z,93454.31
2023-04-02T07:16:25.592Z,93462.41
2023-04-02T07:18:55.456Z,93465.78
2023-04-02T07:21:22.415Z,93460.09
2023-04-02T07:23:49.101Z,93468.34
2023-04-02T07:26:18.407Z,93461.88
2023-04-02T07:28:45.979Z,93478.47
2023-04-02T07:31:18.678Z,93483.09
2023-04-02T07:33:46.007Z,93477.03
2023-04-02T07:36:18.636Z,93473.28
2023-04-02T07:38:45.408Z,93484.53
2023-04-02T07:41:12.246Z,93488.16
2023-04-02T07:43:39.819Z,93486.00
2023-04-02T07:46:07.933Z,93487.03
2023-04-02T07:48:34.743Z,93485.69
2023-04-02T07:51:03.268Z,93485.59
2023-04-02T07:53:33.210Z,93492.50
2023-04-02T07:56:02.111Z,93495.22
2023-04-02T07:58:30.871Z,93503.00
2023-04-02T08:00:58.281Z,93506.84
2023-04-02T08:03:25.622Z,93506.00
2023-04-02T08:05:57.444Z,93505.59
2023-04-02T08:08:25.352Z,93515.34
2023-04-02T08:10:52.034Z,93516.28
2023-04-02T08:13:19.149Z,93524.03
2023-04-02T08:15:45.913Z,93521.91
2023-04-02T08:18:12.790Z,93516.22
2023-04-02T08:20:39.552Z,93516.72
2023-04-02T08:23:15.466Z,93532.00
2023-04-02T08:25:42.184Z,93528.88
2023-04-02T08:28:09.069Z,93534.56
2023-04-02T08:30:36.456Z,93530.31
2023-04-02T08:33:04.303Z,93535.69
2023-04-02T08:35:31.379Z,93528.47
2023-04-02T08:37:58.365Z,93535.16
2023-04-02T08:40:29.808Z,93533.59
2023-04-02T08:43:05.912Z,93534.28
2023-04-02T08:45:55.570Z,93535.19
2023-04-02T08:48:23.481Z,93535.44
2023-04-02T08:50:51.088Z,93538.03
2023-04-02T08:53:28.914Z,93538.38
2023-04-02T08:56:17.991Z,93540.53
2023-04-02T08:58:48.553Z,93536.16
2023-04-02T09:01:36.192Z,93542.47
2023-04-02T09:04:13.849Z,93541.56
2023-04-02T09:06:42.063Z,93546.78
2023-04-02T09:09:09.099Z,93545.03
2023-04-02T09:11:44.372Z,93558.41
2023-04-02T09:14:40.019Z,93560.78
2023-04-02T09:17:19.354Z,93561.78
2023-04-02T09:20:18.458Z,93565.53
2023-04-02T09:22:53.629Z,93566.38
2023-04-02T09:25:29.874Z,93567.38
2023-04-02T09:28:00.753Z,93567.09
2023-04-02T09:30:41.976Z,93577.72
2023-04-02T09:33:09.129Z,93575.50
2023-04-02T09:35:57.601Z,93576.56
2023-04-02T09:38:30.812Z,93579.19
2023-04-02T09:40:59.333Z,93582.00
2023-04-02T09:43:31.981Z,93584.06
2023-04-02T09:46:13.668Z,93588.69
2023-04-02T09:48:53.719Z,93585.53
2023-04-02T09:51:26.493Z,93599.88
2023-04-02T09:54:02.321Z,93604.69
2023-04-02T09:56:33.654Z,93602.31
2023-04-02T09:59:05.339Z,93607.66
2023-04-02T10:01:38.838Z,93608.56
2023-04-02T10:04:26.823Z,93603.09
2023-04-02T10:06:57.970Z,93615.06
2023-04-02T10:09:31.062Z,93621.00
2023-04-02T10:12:00.160Z,93623.38
2023-04-02T10:14:45.986Z,93622.25
2023-04-02T10:17:19.651Z,93618.66
2023-04-02T10:19:58.701Z,93632.06
2023-04-02T10:22:28.060Z,93631.84
2023-04-02T10:24:54.767Z,93640.41
2023-04-02T10:27:33.475Z,93634.59
2023-04-02T10:30:42.276Z,93639.91
2023-04-02T10:33:17.683Z,93640.03
2023-04-02T10:36:30.376Z,93643.59
2023-04-02T10:39:12.471Z,93649.56
2023-04-02T10:41:52.935Z,93640.78
2023-04-02T10:44:43.544Z,93642.25
2023-04-02T10:47:13.133Z,93641.38
2023-04-02T10:50:04.724Z,93644.16
2023-04-02T10:52:39.341Z,93650.69
2023-04-02T10:55:20.101Z,93650.13
2023-04-02T10:57:47.321Z,93652.31
2023-04-02T11:00:28.566Z,93650.81
2023-04-02T11:03:08.073Z,93655.41
2023-04-02T11:05:37.359Z,93658.38
2023-04-02T11:08:11.904Z,93659.75
2023-04-02T11:10:45.078Z,93660.38
2023-04-02T11:13:20.557Z,93659.69
2023-04-02T11:15:47.433Z,93662.78
2023-04-02T11:18:36.734Z,93658.66
2023-04-02T11:21:08.311Z,93651.56
2023-04-02T11:23:56.479Z,93656.47
2023-04-02T11:26:47.385Z,93661.66
2023-04-02T11:29:15.822Z,93657.34
2023-04-02T11:31:44.343Z,93659.34
2023-04-02T11:34:41.955Z,93661.25
2023-04-02T11:37:29.088Z,93664.59
2023-04-02T11:40:00.302Z,93662.22
2023-04-02T11:42:28.105Z,93668.66
2023-04-02T11:44:56.686Z,93669.88
2023-04-02T11:47:26.057Z,93672.25
2023-04-02T11:49:56.450Z,93673.78
2023-04-02T11:52:29.583Z,93670.47
2023-04-02T11:55:16.477Z,93673.34
2023-04-02T11:57:55.367Z,93670.75
2023-04-02T12:00:52.458Z,93673.22
2023-04-02T12:03:52.304Z,93667.84
2023-04-02T12:06:29.510Z,93674.34
2023-04-02T12:09:18.891Z,93677.88
2023-04-02T12:11:47.368Z,93679.84
2023-04-02T12:14:47.229Z,93679.53
2023-04-02T12:17:38.298Z,93677.88
2023-04-02T12:20:09.636Z,93680.66
2023-04-02T12:22:40.643Z,93680.59
2023-04-02T12:25:40.181Z,93689.16
2023-04-02T12:28:09.869Z,93680.78
2023-04-02T12:30:38.587Z,93676.88
2023-04-02T12:33:28.409Z,93686.72
2023-04-02T12:35:58.521Z,93706.44
2023-04-02T12:38:35.136Z,93696.16
2023-04-02T12:41:04.712Z,93705.81
2023-04-02T12:43:37.640Z,93704.44
2023-04-02T12:46:07.475Z,93712.47
2023-04-02T12:48:35.976Z,93715.63
2023-04-02T12:51:04.145Z,93719.09
2023-04-02T12:53:39.420Z,93731.09
2023-04-02T12:56:09.573Z,93735.22
2023-04-02T12:58:37.771Z,93731.03
2023-04-02T13:01:10.908Z,93730.38
2023-04-02T13:03:37.964Z,93736.13
2023-04-02T13:06:22.343Z,93739.72
2023-04-02T13:08:49.268Z,93740.78
2023-04-02T13:11:16.318Z,93746.19
2023-04-02T13:13:45.054Z,93753.53
2023-04-02T13:16:17.690Z,93749.75
2023-04-02T13:18:47.601Z,93751.25
2023-04-02T13:21:17.159Z,93750.53
2023-04-02T13:23:44.426Z,93756.59
2023-04-02T13:26:17.449Z,93754.25
2023-04-02T13:29:16.981Z,93763.44
2023-04-02T13:31:43.788Z,93769.53
2023-04-02T13:34:10.626Z,93770.75
2023-04-02T13:36:37.546Z,93779.13
2023-04-02T13:39:04.869Z,93773.72
2023-04-02T13:41:36.759Z,93777.91
2023-04-02T13:44:04.260Z,93784.28
2023-04-02T13:46:33.536Z,93781.59
2023-04-02T13:49:00.587Z,93787.84
2023-04-02T13:51:35.707Z,93787.91
2023-04-02T13:54:03.919Z,93785.81
2023-04-02T13:56:31.139Z,93797.81
2023-04-02T13:58:57.805Z,93798.44
2023-04-02T14:01:25.433Z,93807.09
2023-04-02T14:03:54.908Z,93805.94
2023-04-02T14:06:42.485Z,93797.63
2023-04-02T14:09:29.380Z,93808.00
2023-04-02T14:12:11.199Z,93817.13
2023-04-02T14:15:16.970Z,93814.84
2023-04-02T14:17:50.921Z,93810.88
2023-04-02T14:20:39.043Z,93817.00
2023-04-02T14:23:21.321Z,93816.22
2023-04-02T14:26:09.521Z,93814.97
2023-04-02T14:28:57.546Z,93821.44
2023-04-02T14:31:41.256Z,93826.06
2023-04-02T14:34:17.192Z,93822.19
2023-04-02T14:37:27.360Z,93819.19
2023-04-02T14:40:16.139Z,93829.88
2023-04-02T14:43:09.115Z,93827.84
2023-04-02T14:45:51.725Z,93820.16
2023-04-02T14:48:36.062Z,93833.09
2023-04-02T14:51:12.442Z,93831.91
2023-04-02T14:53:51.604Z,93835.22
2023-04-02T14:56:21.822Z,93829.13
2023-04-02T14:58:59.964Z,93818.88
2023-04-02T15:01:34.292Z,93828.22
2023-04-02T15:04:14.100Z,93824.63
2023-04-02T15:06:45.661Z,93823.47
2023-04-02T15:09:24.500Z,93824.00
2023-04-02T15:11:54.962Z,93832.25
2023-04-02T15:14:31.711Z,93838.91
2023-04-02T15:16:58.387Z,93835.31
2023-04-02T15:19:25.069Z,93837.81
2023-04-02T15:22:23.073Z,93843.38
2023-04-02T15:25:24.250Z,93836.59
2023-04-02T15:28:12.507Z,93838.25
2023-04-02T15:30:42.450Z,93846.03
2023-04-02T15:33:38.036Z,93855.97
2023-04-02T15:36:39.560Z,93848.72
2023-04-02T15:39:34.541Z,93861.41
2023-04-02T15:42:19.771Z,93851.50
2023-04-02T15:45:16.020Z,93854.31
2023-04-02T15:48:08.894Z,93851.06
2023-04-02T15:50:52.211Z,93857.94
2023-04-02T15:53:39.158Z,93858.25
2023-04-02T15:56:34.156Z,93867.53
2023-04-02T15:59:25.546Z,93868.75
2023-04-02T16:02:23.683Z,93876.84
2023-04-02T16:05:08.174Z,93882.00
2023-04-02T16:07:50.169Z,93886.88
2023-04-02T16:10:37.962Z,93897.13
2023-04-02T16:13:32.470Z,93903.50
2023-04-02T16:16:14.537Z,93907.78
2023-04-02T16:18:52.392Z,93906.19
2023-04-02T16:21:24.764Z,93904.63
2023-04-02T16:23:51.774Z,93919.34
2023-04-02T16:26:39.029Z,93916.16
2023-04-02T16:29:19.160Z,93907.91
2023-04-02T16:32:13.441Z,93922.44
2023-04-02T16:34:42.687Z,93916.66
2023-04-02T16:37:24.519Z,93918.63
2023-04-02T16:40:02.010Z,93922.06
2023-04-02T16:42:50.516Z,93921.31
2023-04-02T16:45:31.342Z,93922.44
2023-04-02T16:48:09.183Z,93928.31
2023-04-02T16:51:13.401Z,93928.34
2023-04-02T16:54:01.110Z,93924.81
2023-04-02T16:56:31.216Z,93917.81
2023-04-02T16:59:28.955Z,93925.56
2023-04-02T17:02:01.394Z,93933.41
2023-04-02T17:04:46.429Z,93934.22
2023-04-02T17:07:36.567Z,93936.53
2023-04-02T17:10:21.792Z,93934.56
2023-04-02T17:12:57.650Z,93942.44
2023-04-02T17:15:28.535Z,93956.03
2023-04-02T17:18:01.854Z,93963.81
2023-04-02T17:20:29.089Z,93956.09
2023-04-02T17:22:56.503Z,93952.19
2023-04-02T17:25:31.626Z,93953.72
2023-04-02T17:27:58.379Z,93958.38
2023-04-02T17:30:40.470Z,93967.75
2023-04-02T17:33:13.233Z,93965.81
2023-04-02T17:35:57.875Z,93977.09
2023-04-02T17:38:44.578Z,93983.69
2023-04-02T17:41:13.995Z,93996.75
2023-04-02T17:44:10.654Z,94001.81
2023-04-02T17:47:11.446Z,93998.69
2023-04-02T17:49:52.186Z,94001.41
2023-04-02T17:52:32.585Z,94009.28
2023-04-02T17:55:13.446Z,94002.59
2023-04-02T17:58:05.188Z,94008.84
2023-04-02T18:00:43.615Z,94013.13
2023-04-02T18:03:21.462Z,94011.19
2023-04-02T18:06:08.713Z,94024.25
2023-04-02T18:08:59.903Z,94024.72
2023-04-02T18:11:42.767Z,94027.53
2023-04-02T18:14:37.871Z,94029.16
2023-04-02T18:17:14.362Z,94033.47
2023-04-02T18:20:05.278Z,94035.44
2023-04-02T18:22:43.865Z,94035.03
2023-04-02T18:25:47.351Z,94047.13
2023-04-02T18:28:35.577Z,94047.13
2023-04-02T18:31:18.824Z,94047.94
2023-04-02T18:34:21.216Z,94056.13
2023-04-02T18:37:06.376Z,94060.00
2023-04-02T18:39:58.473Z,94063.88
2023-04-02T18:42:37.821Z,94066.22
2023-04-02T18:45:18.810Z,94061.97
2023-04-02T18:48:06.785Z,94074.47
2023-04-02T18:50:45.947Z,94063.22
2023-04-02T18:53:15.340Z,94068.66
2023-04-02T18:56:12.040Z,94081.91
2023-04-02T18:58:49.415Z,94081.16
2023-04-02T19:01:22.724Z,94083.88
2023-04-02T19:03:53.124Z,94083.47
2023-04-02T19:06:42.091Z,94088.19
2023-04-02T19:09:16.677Z,94094.41
2023-04-02T19:11:43.435Z,94104.94
2023-04-02T19:14:16.862Z,94103.75
2023-04-02T19:16:55.369Z,94110.38
2023-04-02T19:19:26.518Z,94118.19
2023-04-02T19:22:17.798Z,94117.41
2023-04-02T19:25:08.778Z,94123.66
2023-04-02T19:27:51.448Z,94122.47
2023-04-02T19:30:45.927Z,94112.75
2023-04-02T19:33:26.337Z,94125.22
2023-04-02T19:36:02.252Z,94121.31
2023-04-02T19:38:43.993Z,94134.56
2023-04-02T19:41:39.967Z,94133.81
2023-04-02T19:44:13.029Z,94138.44
2023-04-02T19:46:40.871Z,94137.28
2023-04-02T19:49:13.222Z,94140.38
2023-04-02T19:51:39.978Z,94137.56
2023-04-02T19:54:06.711Z,94137.22
2023-04-02T19:56:33.416Z,94145.72
2023-04-02T19:59:02.461Z,94134.91
2023-04-02T20:01:34.902Z,94144.66
2023-04-02T20:04:01.724Z,94146.16
2023-04-02T20:06:30.093Z,94152.44
2023-04-02T20:08:57.201Z,94154.00
2023-04-02T20:11:24.907Z,94159.38
2023-04-02T20:13:52.734Z,94160.13
2023-04-02T20:16:20.627Z,94169.69
2023-04-02T20:18:48.471Z,94171.56
2023-04-02T20:21:15.355Z,94180.53
2023-04-02T20:23:42.008Z,94183.72
2023-04-02T20:26:08.784Z,94178.69
2023-04-02T20:28:35.424Z,94181.47
2023-04-02T20:31:13.495Z,94185.00
2023-04-02T20:33:40.839Z,94189.72
2023-04-02T20:36:09.886Z,94192.34
2023-04-02T20:38:36.958Z,94195.34
2023-04-02T20:41:06.299Z,94195.66
2023-04-02T20:43:34.429Z,94204.97
2023-04-02T20:46:08.345Z,94209.22
2023-04-02T20:48:37.635Z,94210.75
2023-04-02T20:51:06.239Z,94214.97
2023-04-02T20:53:34.924Z,94218.28
2023-04-02T20:56:06.854Z,94220.25
2023-04-02T20:58:35.605Z,94233.78
2023-04-02T21:01:10.729Z,94231.97
2023-04-02T21:03:39.743Z,94238.97
2023-04-02T21:06:12.919Z,94242.34
2023-04-02T21:08:39.703Z,94246.63
2023-04-02T21:11:07.279Z,94249.06
2023-04-02T21:13:36.341Z,94243.75
2023-04-02T21:16:05.377Z,94239.97
2023-04-02T21:18:32.261Z,94241.50
2023-04-02T21:21:04.714Z,94245.34
2023-04-02T21:23:32.614Z,94236.06
2023-04-02T21:26:02.058Z,94233.75
2023-04-02T21:28:29.069Z,94230.25
2023-04-02T21:31:07.072Z,94232.06
2023-04-02T21:33:39.689Z,94237.59
2023-04-02T21:36:11.886Z,94237.28
2023-04-02T21:38:46.581Z,94247.66
2023-04-02T21:41:22.347Z,94241.63
2023-04-02T21:43:49.446Z,94253.53
2023-04-02T21:46:18.393Z,94252.81
2023-04-02T21:48:45.664Z,94267.28
2023-04-02T21:51:15.347Z,94260.50
2023-04-02T21:53:43.153Z,94274.72
2023-04-02T21:56:14.232Z,94270.44
2023-04-02T21:58:41.624Z,94274.97
2023-04-02T22:01:14.039Z,94280.91
2023-04-02T22:03:47.823Z,94286.97
2023-04-02T22:06:15.914Z,94292.09
2023-04-02T22:08:44.231Z,94288.59
2023-04-02T22:11:13.947Z,94295.47
2023-04-02T22:13:42.309Z,94291.63
2023-04-02T22:16:13.150Z,94294.19
2023-04-02T22:18:40.259Z,94303.22
2023-04-02T22:21:07.844Z,94302.09
2023-04-02T22:23:35.580Z,94313.44
2023-04-02T22:26:03.451Z,94312.59
2023-04-02T22:28:30.607Z,94307.88
2023-04-02T22:31:29.089Z,94317.09
2023-04-02T22:33:56.961Z,94311.44
2023-04-02T22:36:24.322Z,94312.44
2023-04-02T22:38:51.217Z,94317.09
2023-04-02T22:41:27.583Z,94320.50
2023-04-02T22:43:58.467Z,94323.22
2023-04-02T22:46:26.532Z,94325.28
2023-04-02T22:48:54.311Z,94326.28
2023-04-02T22:51:22.592Z,94332.56
2023-04-02T22:53:50.326Z,94323.84
2023-04-02T22:56:21.591Z,94329.50
2023-04-02T22:58:48.764Z,94333.16
2023-04-02T23:01:18.867Z,94328.41
2023-04-02T23:03:45.740Z,94327.13
2023-04-02T23:06:15.623Z,94332.34
2023-04-02T23:08:42.869Z,94331.75
2023-04-02T23:11:16.509Z,94334.69
2023-04-02T23:13:44.428Z,94329.66
2023-04-02T23:16:13.147Z,94332.03
2023-04-02T23:18:41.144Z,94328.22
2023-04-02T23:21:09.399Z,94335.63
2023-04-02T23:23:36.576Z,94326.91
2023-04-02T23:26:10.261Z,94328.94
2023-04-02T23:28:38.110Z,94337.44
2023-04-02T23:31:06.915Z,94328.63
2023-04-02T23:33:34.826Z,94329.19
2023-04-02T23:36:07.626Z,94329.81
2023-04-02T23:38:34.358Z,94336.47
2023-04-02T23:41:00.950Z,94334.88
2023-04-02T23:43:27.663Z,94340.28
2023-04-02T23:45:54.332Z,94348.91
2023-04-02T23:48:21.096Z,94350.56
2023-04-02T23:50:47.781Z,94342.19
2023-04-02T23:53:14.439Z,94351.47
2023-04-02T23:55:41.418Z,94339.44
2023-04-02T23:58:08.362Z,94339.88
